Time;durP1;ratioP1;P1;durP2;ratioP2;P2;SDS_P1;SDS_P2;PMS_P1;PMS_P2;Temp;Humidity;BMP_temperature;BMP_pressure;BME280_temperature;BME280_humidity;BME280_pressure;Samples;Min_cycle;Max_cycle;Signal;HPM_P1;HPM_P2
2023/07/21 00:01:04;;;;;;;;;2.67;2.00;;;;;18.08;60.48;101292.38;4946843;28;9857;-68
2023/07/21 00:03:32;;;;;;;;;1.33;1.33;;;;;18.08;60.73;101286.94;4948803;28;8947;-68
2023/07/21 00:06:00;;;;;;;;;2.33;1.00;;;;;18.07;60.81;101287.16;4950107;28;8929;-69
2023/07/21 00:08:28;;;;;;;;;0.33;0.33;;;;;18.06;61.03;101291.78;4948446;28;9779;-69
2023/07/21 00:10:59;;;;;;;;;2.00;2.00;;;;;18.04;61.17;101293.91;4966174;28;8947;-68
2023/07/21 00:13:26;;;;;;;;;1.25;1.25;;;;;18.03;60.93;101286.81;4943939;28;9173;-68
2023/07/21 00:15:54;;;;;;;;;1.25;1.25;;;;;18.03;61.33;101290.38;4986086;28;9026;-68
2023/07/21 00:18:21;;;;;;;;;0.67;0.67;;;;;18.01;61.29;101284.31;4949700;28;9009;-68
2023/07/21 00:20:47;;;;;;;;;0.67;0.67;;;;;18.01;61.27;101287.03;4949827;28;8965;-68
2023/07/21 00:23:16;;;;;;;;;3.00;2.00;;;;;18.01;61.19;101288.94;4948594;28;8990;-69
2023/07/21 00:25:45;;;;;;;;;1.00;1.00;;;;;17.99;61.20;101275.53;4948052;28;9854;-70
2023/07/21 00:28:12;;;;;;;;;3.00;2.00;;;;;18.01;61.25;101286.19;4948426;28;9014;-69
2023/07/21 00:30:39;;;;;;;;;1.00;1.00;;;;;18.00;61.35;101281.81;4964918;28;8987;-67
2023/07/21 00:33:06;;;;;;;;;2.00;1.67;;;;;18.00;61.24;101290.00;4947038;28;9027;-69
2023/07/21 00:35:33;;;;;;;;;1.67;1.67;;;;;17.99;61.27;101282.91;4942555;28;8998;-69
2023/07/21 00:38:01;;;;;;;;;2.33;2.33;;;;;17.98;61.58;101279.31;5029375;28;9000;-68
2023/07/21 00:40:27;;;;;;;;;1.00;1.00;;;;;17.99;61.21;101278.28;4949370;28;9019;-67
2023/07/21 00:42:57;;;;;;;;;2.00;2.00;;;;;17.99;61.27;101277.44;4948612;28;8840;-68
2023/07/21 00:45:24;;;;;;;;;3.00;1.00;;;;;17.96;61.40;101273.28;4946845;28;8999;-69
2023/07/21 00:47:51;;;;;;;;;1.00;1.00;;;;;17.96;61.47;101269.72;4964376;28;8925;-69
2023/07/21 00:50:18;;;;;;;;;1.00;1.00;;;;;17.94;61.66;101263.66;4963060;28;9144;-67
2023/07/21 00:52:47;;;;;;;;;2.33;1.00;;;;;17.93;61.60;101273.75;4933111;28;9052;-69
2023/07/21 00:55:14;;;;;;;;;1.33;1.33;;;;;17.93;61.45;101262.84;4964128;28;8960;-70
2023/07/21 00:57:41;;;;;;;;;1.00;1.00;;;;;17.92;61.70;101255.75;4948296;29;9676;-68
2023/07/21 01:00:11;;;;;;;;;1.00;1.00;;;;;17.92;61.48;101252.19;4962946;28;8954;-69
2023/07/21 01:02:38;;;;;;;;;3.50;1.00;;;;;17.91;61.33;101247.81;4948758;28;8883;-69
2023/07/21 01:05:07;;;;;;;;;1.33;1.33;;;;;17.90;61.37;101254.31;4955266;28;8838;-68
2023/07/21 01:07:36;;;;;;;;;1.00;1.00;;;;;17.90;61.20;101252.41;4961943;28;8928;-68
2023/07/21 01:10:04;;;;;;;;;1.00;1.00;;;;;17.88;61.12;101248.28;4946930;28;9086;-68
2023/07/21 01:12:30;;;;;;;;;1.00;1.00;;;;;17.88;61.04;101248.28;4940573;29;8910;-67
2023/07/21 01:14:57;;;;;;;;;0.00;0.00;;;;;17.87;61.24;101247.44;4963750;28;9002;-68
2023/07/21 01:17:26;;;;;;;;;1.00;1.00;;;;;17.85;60.93;101249.56;4949006;29;8828;-67
2023/07/21 01:19:53;;;;;;;;;0.50;0.50;;;;;17.84;61.06;101247.09;4939955;28;8908;-68
2023/07/21 01:22:35;;;;;;;;;1.00;0.33;;;;;17.84;60.88;101233.47;4946101;28;8828;-68
2023/07/21 01:25:09;;;;;;;;;1.00;1.00;;;;;17.83;61.14;101231.81;4947753;28;9050;-69
2023/07/21 01:27:39;;;;;;;;;1.00;1.00;;;;;17.84;61.33;101231.56;4944092;28;8883;-68
2023/07/21 01:30:11;;;;;;;;;1.33;1.33;;;;;17.83;61.25;101229.91;4929686;29;8842;-69
2023/07/21 01:32:46;;;;;;;;;1.00;1.00;;;;;17.82;61.27;101233.69;4945914;29;8908;-68
2023/07/21 01:35:16;;;;;;;;;2.00;2.00;;;;;17.79;61.64;101232.28;4963525;28;8912;-67
2023/07/21 01:37:45;;;;;;;;;1.00;1.00;;;;;17.76;61.33;101230.00;4943624;28;8923;-68
2023/07/21 01:40:15;;;;;;;;;2.75;1.00;;;;;17.75;61.81;101227.53;4987716;28;8943;-68
2023/07/21 01:42:44;;;;;;;;;1.00;1.00;;;;;17.72;62.01;101220.59;4955218;28;8970;-69
2023/07/21 01:45:12;;;;;;;;;0.67;0.67;;;;;17.71;62.15;101221.69;4959722;28;9281;-67
2023/07/21 01:47:39;;;;;;;;;4.00;2.00;;;;;17.69;62.03;101226.50;4979747;28;9000;-70
2023/07/21 01:50:13;;;;;;;;;2.00;2.00;;;;;17.69;62.01;101226.50;4955730;28;8943;-68
2023/07/21 01:52:43;;;;;;;;;3.67;3.00;;;;;17.68;61.68;101215.88;4947184;29;9011;-69
2023/07/21 01:55:19;;;;;;;;;1.00;1.00;;;;;17.67;62.00;101217.75;4945400;29;8997;-69
2023/07/21 01:57:55;;;;;;;;;1.00;1.00;;;;;17.68;62.38;101215.88;4947924;28;8943;-69
2023/07/21 02:00:24;;;;;;;;;2.67;2.33;;;;;17.67;62.36;101219.66;4971979;28;9080;-68
2023/07/21 02:02:53;;;;;;;;;1.00;1.00;;;;;17.67;62.35;101215.03;4945960;28;8928;-70
2023/07/21 02:05:27;;;;;;;;;1.00;1.00;;;;;17.66;62.01;101210.66;4949355;28;9655;-69
2023/07/21 02:07:54;;;;;;;;;1.00;1.00;;;;;17.66;61.99;101205.22;4970851;28;8923;-69
2023/07/21 02:10:21;;;;;;;;;1.75;1.75;;;;;17.66;61.98;101205.22;4966123;28;8935;-69
2023/07/21 02:12:56;;;;;;;;;0.75;0.75;;;;;17.66;61.81;101204.34;4949374;28;8840;-69
2023/07/21 02:15:23;;;;;;;;;1.50;1.00;;;;;17.65;61.85;101206.25;4980198;28;9663;-68
2023/07/21 02:17:50;;;;;;;;;1.00;1.00;;;;;17.65;61.96;101198.09;4965526;28;8828;-68
2023/07/21 02:20:16;;;;;;;;;1.25;1.25;;;;;17.66;61.67;101201.63;4998943;28;9093;-69
2023/07/21 02:22:43;;;;;;;;;1.33;1.33;;;;;17.67;61.81;101208.75;4948428;28;8917;-70
2023/07/21 02:25:13;;;;;;;;;1.67;1.00;;;;;17.67;61.68;101204.16;4966205;28;8966;-69
2023/07/21 02:27:40;;;;;;;;;1.75;1.00;;;;;17.67;61.76;101200.59;4966177;28;9002;-69
2023/07/21 02:30:07;;;;;;;;;1.00;1.00;;;;;17.67;61.54;101200.59;4950047;28;8929;-68
2023/07/21 02:32:33;;;;;;;;;3.00;1.33;;;;;17.67;61.41;101203.31;4942653;28;9786;-69
2023/07/21 02:35:01;;;;;;;;;1.00;1.00;;;;;17.68;61.35;101199.53;4950396;28;9098;-68
2023/07/21 02:37:28;;;;;;;;;1.00;1.00;;;;;17.67;61.32;101198.69;4971008;28;8843;-69
2023/07/21 02:39:55;;;;;;;;;1.00;1.00;;;;;17.67;61.57;101204.16;4995214;28;8946;-68
2023/07/21 02:42:22;;;;;;;;;0.75;0.75;;;;;17.67;61.41;101193.25;4946192;28;8960;-68
2023/07/21 02:44:50;;;;;;;;;2.00;1.33;;;;;17.66;61.48;101198.91;4964402;28;8887;-68
2023/07/21 02:47:19;;;;;;;;;2.00;2.00;;;;;17.67;61.59;101197.88;4959625;28;8917;-68
2023/07/21 02:49:45;;;;;;;;;1.00;1.00;;;;;17.63;61.83;101200.22;4963860;28;8922;-70
2023/07/21 02:52:12;;;;;;;;;1.25;1.25;;;;;17.64;61.78;101196.44;4948114;28;9670;-70
2023/07/21 02:54:44;;;;;;;;;0.33;0.33;;;;;17.63;61.66;101192.06;4963405;28;8848;-70
2023/07/21 02:57:11;;;;;;;;;3.00;2.00;;;;;17.62;61.65;101195.00;4964305;28;9006;-68
2023/07/21 02:59:38;;;;;;;;;2.00;1.00;;;;;17.62;61.94;101198.53;4957476;28;8929;-70
2023/07/21 03:02:05;;;;;;;;;0.33;0.33;;;;;17.62;61.92;101193.09;4961830;28;8838;-70
2023/07/21 03:04:45;;;;;;;;;1.00;1.00;;;;;17.61;62.12;101198.78;4946369;28;9109;-69
2023/07/21 03:07:14;;;;;;;;;1.00;1.00;;;;;17.60;61.81;101194.41;4954392;28;9126;-70
2023/07/21 03:09:46;;;;;;;;;0.00;0.00;;;;;17.59;61.56;101190.03;4964630;28;9156;-68
2023/07/21 03:12:20;;;;;;;;;1.00;1.00;;;;;17.58;61.78;101189.19;4949060;28;8936;-69
2023/07/21 03:15:05;;;;;;;;;2.00;2.00;;;;;17.55;62.05;101192.38;4965368;28;9086;-70
2023/07/21 03:17:48;;;;;;;;;2.00;2.00;;;;;17.51;61.92;101181.13;4948847;28;9077;-70
2023/07/21 03:20:15;;;;;;;;;1.33;1.33;;;;;17.48;62.17;101181.59;4965065;28;9059;-69
2023/07/21 03:22:44;;;;;;;;;1.33;1.00;;;;;17.44;62.22;101169.50;4944989;28;9087;-69
2023/07/21 03:25:13;;;;;;;;;2.00;2.00;;;;;17.41;62.42;101177.31;4988239;28;9110;-67
2023/07/21 03:27:40;;;;;;;;;2.00;1.00;;;;;17.38;62.73;101177.75;4965125;28;9018;-69
2023/07/21 03:30:09;;;;;;;;;1.67;1.67;;;;;17.34;62.47;101176.56;4965242;28;8913;-68
2023/07/21 03:32:45;;;;;;;;;1.00;1.00;;;;;17.29;62.86;101175.34;4961223;28;9058;-68
2023/07/21 03:35:12;;;;;;;;;2.00;2.00;;;;;17.27;62.79;101176.66;4947947;28;9017;-67
2023/07/21 03:37:40;;;;;;;;;2.00;1.00;;;;;17.23;62.86;101179.00;4977861;28;8979;-67
2023/07/21 03:40:07;;;;;;;;;2.00;1.00;;;;;17.20;63.20;101173.19;4950062;28;9923;-69
2023/07/21 03:42:35;;;;;;;;;3.00;1.00;;;;;17.19;63.19;101166.09;4964594;28;9248;-67
2023/07/21 03:45:05;;;;;;;;;1.67;1.67;;;;;17.16;63.15;101170.09;4948730;28;9186;-69
2023/07/21 03:47:35;;;;;;;;;1.00;1.00;;;;;17.15;63.25;101164.91;4961591;28;9087;-69
2023/07/21 03:50:04;;;;;;;;;1.00;1.00;;;;;17.12;63.61;101159.91;4944381;28;9271;-69
2023/07/21 03:52:32;;;;;;;;;3.00;2.00;;;;;17.07;63.37;101165.22;4948085;28;9283;-70
2023/07/21 03:54:59;;;;;;;;;0.67;0.67;;;;;17.03;63.87;101160.22;4963608;28;9187;-69
2023/07/21 03:57:26;;;;;;;;;3.00;3.00;;;;;17.02;63.65;101164.03;4945200;29;9184;-69
2023/07/21 03:59:52;;;;;;;;;2.00;1.67;;;;;16.98;63.84;101162.81;4969889;28;9182;-69
2023/07/21 04:02:19;;;;;;;;;1.00;1.00;;;;;16.94;64.10;101160.78;4959900;28;9251;-69
2023/07/21 04:04:46;;;;;;;;;1.67;1.67;;;;;16.93;64.09;101159.09;4961074;28;9087;-70
2023/07/21 04:07:13;;;;;;;;;2.00;2.00;;;;;16.90;64.32;101165.03;4938723;28;9843;-67
2023/07/21 04:09:40;;;;;;;;;2.00;2.00;;;;;16.89;64.15;101161.44;4948128;28;9171;-68
2023/07/21 04:12:07;;;;;;;;;1.00;1.00;;;;;16.87;64.56;101160.88;4987473;28;9042;-71
2023/07/21 04:14:36;;;;;;;;;0.00;0.00;;;;;16.86;64.58;101158.38;4963288;28;9233;-69
2023/07/21 04:17:04;;;;;;;;;1.00;1.00;;;;;16.84;64.72;101150.44;4947512;28;10656;-70
2023/07/21 04:19:30;;;;;;;;;1.00;1.00;;;;;16.84;65.04;101150.44;4945983;28;9292;-68
2023/07/21 04:21:57;;;;;;;;;1.00;1.00;;;;;16.82;64.85;101147.13;4986321;28;9232;-70
2023/07/21 04:24:23;;;;;;;;;1.00;1.00;;;;;16.80;65.06;101139.19;4964449;28;9179;-67
2023/07/21 04:26:50;;;;;;;;;1.33;1.33;;;;;16.79;64.99;101148.41;4946536;28;9160;-69
2023/07/21 04:29:17;;;;;;;;;1.67;1.67;;;;;16.78;65.17;101144.03;4946326;28;9280;-69
2023/07/21 04:32:02;;;;;;;;;1.00;1.00;;;;;16.77;65.31;101142.38;4963272;28;9114;-67
2023/07/21 04:34:29;;;;;;;;;1.00;1.00;;;;;16.78;64.92;101143.22;4963740;28;9161;-69
2023/07/21 04:36:57;;;;;;;;;1.00;1.00;;;;;16.80;65.62;101138.34;4969697;28;9201;-68
2023/07/21 04:39:30;;;;;;;;;1.67;1.00;;;;;16.79;65.39;101137.53;4972291;28;9144;-67
2023/07/21 04:41:57;;;;;;;;;1.00;1.00;;;;;16.83;65.79;101137.06;4959872;28;9167;-69
2023/07/21 04:44:24;;;;;;;;;2.00;2.00;;;;;16.85;65.67;101135.78;4962198;28;9971;-68
2023/07/21 04:46:51;;;;;;;;;1.00;1.00;;;;;16.87;65.93;101130.13;4946608;28;9271;-69
2023/07/21 04:49:20;;;;;;;;;1.33;1.33;;;;;16.88;65.71;101124.44;4943790;28;9169;-69
2023/07/21 04:51:50;;;;;;;;;1.33;1.33;;;;;16.91;66.03;101123.16;4977357;28;9179;-68
2023/07/21 04:54:16;;;;;;;;;2.67;2.00;;;;;16.94;65.63;101122.72;4971694;28;9193;-68
2023/07/21 04:56:44;;;;;;;;;1.00;1.00;;;;;16.98;65.89;101123.91;4961342;28;9086;-69
2023/07/21 04:59:13;;;;;;;;;2.00;1.33;;;;;16.99;65.89;101126.41;4963610;28;9171;-67
2023/07/21 05:01:41;;;;;;;;;1.00;1.00;;;;;16.99;65.80;101120.13;4976150;28;9160;-68
2023/07/21 05:04:10;;;;;;;;;1.00;1.00;;;;;17.03;65.67;101116.72;4974780;28;9180;-69
2023/07/21 05:06:38;;;;;;;;;0.67;0.67;;;;;17.05;65.61;101120.06;4963099;28;9186;-69
2023/07/21 05:09:05;;;;;;;;;1.00;1.00;;;;;17.11;65.51;101122.91;4948194;28;9098;-68
2023/07/21 05:11:31;;;;;;;;;1.33;1.33;;;;;17.14;65.53;101117.84;4946083;28;8995;-68
2023/07/21 05:13:58;;;;;;;;;0.33;0.33;;;;;17.19;65.56;101115.25;4947099;28;9041;-69
2023/07/21 05:16:36;;;;;;;;;1.00;1.00;;;;;17.23;65.71;101113.72;4942472;28;8925;-67
2023/07/21 05:19:22;;;;;;;;;1.00;1.00;;;;;17.27;65.64;101114.91;4947034;28;8921;-69
2023/07/21 05:22:07;;;;;;;;;1.00;1.00;;;;;17.29;65.82;101114.66;4948476;29;8835;-67
2023/07/21 05:25:00;;;;;;;;;0.67;0.67;;;;;17.30;65.22;101116.34;4945154;28;8932;-68
2023/07/21 05:27:27;;;;;;;;;1.00;1.00;;;;;17.33;65.10;101123.22;4944465;28;9740;-68
2023/07/21 05:29:55;;;;;;;;;1.33;1.00;;;;;17.36;65.06;101125.47;4947476;28;8924;-68
2023/07/21 05:32:23;;;;;;;;;1.67;1.67;;;;;17.37;65.19;101121.69;4950380;28;9070;-69
2023/07/21 05:34:57;;;;;;;;;2.00;0.00;;;;;17.39;65.15;101122.28;4966183;28;9821;-69
2023/07/21 05:37:24;;;;;;;;;2.00;2.00;;;;;17.39;64.94;101131.28;4966528;28;9247;-68
2023/07/21 05:39:52;;;;;;;;;1.00;1.00;;;;;17.40;65.04;101132.09;4952407;28;8933;-69
2023/07/21 05:42:22;;;;;;;;;1.00;1.00;;;;;17.41;65.01;101131.84;4962209;28;9018;-69
2023/07/21 05:44:50;;;;;;;;;3.33;3.33;;;;;17.44;64.77;101136.03;4949255;28;9038;-69
2023/07/21 05:47:19;;;;;;;;;2.00;2.00;;;;;17.46;64.69;101125.72;4976833;28;9818;-70
2023/07/21 05:49:50;;;;;;;;;1.00;1.00;;;;;17.44;64.80;101123.25;4948473;28;8996;-69
2023/07/21 05:52:17;;;;;;;;;1.67;1.67;;;;;17.45;64.69;101118.63;4957866;28;9056;-69
2023/07/21 05:54:46;;;;;;;;;2.00;2.00;;;;;17.44;64.57;101127.84;4951668;28;9156;-69
2023/07/21 05:57:13;;;;;;;;;2.00;2.00;;;;;17.45;64.75;101129.50;4948087;28;8946;-69
2023/07/21 05:59:45;;;;;;;;;2.00;2.00;;;;;17.45;64.68;101127.63;4948379;28;9153;-70
2023/07/21 06:02:13;;;;;;;;;2.33;2.33;;;;;17.45;65.10;101118.63;4967669;28;9157;-69
2023/07/21 06:04:42;;;;;;;;;3.67;3.67;;;;;17.46;64.62;101123.00;4950434;28;9234;-69
2023/07/21 06:07:32;;;;;;;;;3.00;3.00;;;;;17.47;64.97;101120.06;4944980;28;9022;-69
2023/07/21 06:10:12;;;;;;;;;4.00;3.00;;;;;17.48;64.78;101116.25;4965258;28;9141;-70
2023/07/21 06:13:08;;;;;;;;;5.67;5.67;;;;;17.49;64.68;101114.38;4948395;28;8995;-71
2023/07/21 06:16:01;;;;;;;;;2.00;2.00;;;;;17.50;64.68;101125.03;4981382;28;9082;-70
2023/07/21 06:18:35;;;;;;;;;4.33;4.33;;;;;17.50;64.73;101122.31;5048065;28;8924;-70
2023/07/21 06:21:03;;;;;;;;;3.00;3.00;;;;;17.54;64.41;101128.09;5047733;28;9158;-69
2023/07/21 06:23:30;;;;;;;;;2.00;2.00;;;;;17.55;64.46;101124.34;5031299;28;9079;-70
2023/07/21 06:25:57;;;;;;;;;1.00;1.00;;;;;17.57;64.54;101134.97;5047847;28;9102;-71
2023/07/21 06:28:23;;;;;;;;;5.33;3.00;;;;;17.56;64.42;101128.72;5047635;28;9125;-69
2023/07/21 06:30:50;;;;;;;;;2.00;2.00;;;;;17.56;64.13;101128.72;4979193;28;9013;-69
2023/07/21 06:33:37;;;;;;;;;1.67;1.67;;;;;17.58;63.98;101131.19;4965811;28;8931;-69
2023/07/21 06:36:22;;;;;;;;;2.50;2.00;;;;;17.59;64.02;101130.97;4951060;28;8944;-70
2023/07/21 06:39:27;;;;;;;;;2.00;2.00;;;;;17.60;63.46;101123.63;5010538;28;9714;-68
2023/07/21 06:42:04;;;;;;;;;2.25;2.25;;;;;17.60;63.66;101129.06;5008839;28;8917;-66
2023/07/21 06:44:37;;;;;;;;;1.00;1.00;;;;;17.62;63.51;101130.47;4983086;28;8852;-68
2023/07/21 06:47:29;;;;;;;;;3.00;3.00;;;;;17.61;63.45;101128.00;4965750;28;8958;-67
2023/07/21 06:50:26;;;;;;;;;3.00;3.00;;;;;17.63;63.13;101129.44;4984249;28;8915;-67
2023/07/21 06:52:53;;;;;;;;;3.00;3.00;;;;;17.65;63.75;101126.47;4965375;28;9028;-67
2023/07/21 06:55:21;;;;;;;;;2.33;2.33;;;;;17.64;63.40;101131.09;4949360;28;9041;-67
2023/07/21 06:57:49;;;;;;;;;4.00;4.00;;;;;17.63;63.49;101132.16;4949412;28;8917;-67
2023/07/21 07:00:16;;;;;;;;;8.33;6.67;;;;;17.61;63.04;101123.38;4950542;28;8998;-67
2023/07/21 07:02:49;;;;;;;;;4.00;4.00;;;;;17.62;62.97;101130.47;4965129;28;9081;-67
2023/07/21 07:05:16;;;;;;;;;3.00;3.00;;;;;17.62;63.22;101129.66;4950752;28;8935;-70
2023/07/21 07:07:43;;;;;;;;;5.33;5.33;;;;;17.64;63.13;101124.81;4934321;28;9009;-70
2023/07/21 07:10:10;;;;;;;;;4.33;4.33;;;;;17.61;63.16;101122.56;4965374;28;9187;-70
2023/07/21 07:12:40;;;;;;;;;5.67;5.67;;;;;17.63;62.90;101118.56;4979289;28;9164;-70
2023/07/21 07:15:10;;;;;;;;;6.00;5.00;;;;;17.64;63.28;101117.47;5007662;28;9176;-70
2023/07/21 07:17:37;;;;;;;;;5.33;5.33;;;;;17.63;62.75;101121.28;5049519;28;9000;-70
2023/07/21 07:20:04;;;;;;;;;4.00;3.67;;;;;17.67;62.92;101103.41;4976799;28;9016;-70
2023/07/21 07:22:30;;;;;;;;;7.00;7.00;;;;;17.69;62.82;101109.44;4948782;28;9246;-69
2023/07/21 07:24:57;;;;;;;;;4.00;4.00;;;;;17.67;63.02;101114.31;4949548;28;9071;-68
2023/07/21 07:27:24;;;;;;;;;3.00;3.00;;;;;17.72;62.79;101119.03;4964200;28;9060;-70
2023/07/21 07:29:51;;;;;;;;;4.33;3.00;;;;;17.75;62.91;101114.00;4950252;28;9757;-69
2023/07/21 07:32:19;;;;;;;;;2.33;2.33;;;;;17.81;62.86;101117.66;4949791;28;9059;-69
2023/07/21 07:34:45;;;;;;;;;3.25;3.00;;;;;17.86;62.87;101115.03;4950373;28;9777;-70
2023/07/21 07:37:11;;;;;;;;;3.67;3.67;;;;;17.92;62.59;101113.28;4949700;28;8828;-68
2023/07/21 07:39:39;;;;;;;;;2.67;2.67;;;;;17.95;62.62;101115.53;4964890;28;9163;-67
2023/07/21 07:42:05;;;;;;;;;7.00;7.00;;;;;17.93;62.27;101118.50;4945617;28;8917;-69
2023/07/21 07:44:34;;;;;;;;;11.33;6.67;;;;;17.92;62.05;101116.00;4930420;29;9965;-68
2023/07/21 07:47:00;;;;;;;;;8.33;7.00;;;;;17.92;62.18;101113.28;4949999;28;9217;-68
2023/07/21 07:49:28;;;;;;;;;6.00;6.00;;;;;17.96;62.39;101109.03;4948376;28;9295;-68
2023/07/21 07:51:54;;;;;;;;;7.67;7.67;;;;;17.98;62.25;101109.59;4949153;28;9162;-69
2023/07/21 07:54:21;;;;;;;;;6.33;5.67;;;;;18.01;62.01;101114.59;4949488;28;9047;-69
2023/07/21 07:56:47;;;;;;;;;7.00;6.25;;;;;18.05;61.65;101118.50;4948741;28;9086;-67
2023/07/21 07:59:14;;;;;;;;;3.00;2.50;;;;;18.10;61.75;101104.97;4948954;28;8858;-69
2023/07/21 08:01:40;;;;;;;;;7.00;7.00;;;;;18.10;61.93;101104.97;4959056;28;8853;-69
2023/07/21 08:04:07;;;;;;;;;12.00;10.33;;;;;18.06;61.64;101106.53;4964298;28;9129;-70
2023/07/21 08:06:34;;;;;;;;;5.67;5.67;;;;;18.10;61.66;101104.97;4948838;28;9088;-70
2023/07/21 08:09:00;;;;;;;;;5.00;5.00;;;;;18.17;61.88;101110.31;4948864;28;8994;-69
2023/07/21 08:11:27;;;;;;;;;6.00;6.00;;;;;18.22;61.79;101107.69;4949274;28;8944;-69
2023/07/21 08:13:54;;;;;;;;;5.67;5.67;;;;;18.25;61.74;101099.88;4953584;28;9028;-67
2023/07/21 08:16:20;;;;;;;;;4.25;2.25;;;;;18.31;61.36;101108.16;4949448;28;8951;-69
2023/07/21 08:18:47;;;;;;;;;3.75;3.75;;;;;18.33;61.05;101103.31;4949355;28;8840;-71
2023/07/21 08:21:18;;;;;;;;;6.67;6.67;;;;;18.36;60.91;101106.41;4949153;28;8867;-71
2023/07/21 08:23:45;;;;;;;;;3.00;3.00;;;;;18.35;60.67;101104.75;4964415;28;9072;-70
2023/07/21 08:26:11;;;;;;;;;2.00;2.00;;;;;18.38;60.49;101112.41;4949058;28;8944;-71
2023/07/21 08:28:39;;;;;;;;;3.75;3.00;;;;;18.40;60.02;101114.94;4949476;28;8970;-68
2023/07/21 08:31:05;;;;;;;;;1.75;1.75;;;;;18.38;60.38;101114.31;4948048;28;8863;-70
2023/07/21 08:33:32;;;;;;;;;2.75;2.50;;;;;18.40;60.29;101115.75;4948050;28;8961;-69
2023/07/21 08:35:58;;;;;;;;;2.33;2.33;;;;;18.42;60.01;101116.31;4947237;28;8870;-68
2023/07/21 08:38:25;;;;;;;;;1.75;1.50;;;;;18.38;59.28;101111.59;4946217;28;8933;-69
2023/07/21 08:41:01;;;;;;;;;2.00;2.00;;;;;18.42;59.57;101116.31;4944814;28;8864;-67
2023/07/21 08:43:28;;;;;;;;;2.00;2.00;;;;;18.43;59.33;101118.00;4948594;28;8840;-70
2023/07/21 08:45:59;;;;;;;;;1.25;1.25;;;;;18.45;59.16;101121.31;4963795;28;8836;-70
2023/07/21 08:48:27;;;;;;;;;1.50;1.50;;;;;18.46;58.73;101114.78;4966394;28;8882;-68
2023/07/21 08:50:55;;;;;;;;;3.00;3.00;;;;;18.49;58.94;101114.31;4950398;28;8860;-68
2023/07/21 08:53:24;;;;;;;;;3.00;2.00;;;;;18.55;59.19;101112.50;4949140;28;8936;-69
2023/07/21 08:55:55;;;;;;;;;1.00;1.00;;;;;18.59;58.72;101115.56;4950064;28;8836;-67
2023/07/21 08:58:23;;;;;;;;;2.25;2.25;;;;;18.46;58.18;101111.22;4949911;28;8829;-66
2023/07/21 09:00:54;;;;;;;;;2.00;2.00;;;;;18.52;57.87;101110.28;4947717;28;8846;-67
2023/07/21 09:03:22;;;;;;;;;3.00;1.25;;;;;18.60;58.22;101103.63;4945197;28;8840;-67
2023/07/21 09:05:50;;;;;;;;;2.00;2.00;;;;;18.63;57.75;101106.66;4959276;28;8835;-67
2023/07/21 09:08:21;;;;;;;;;1.00;1.00;;;;;18.68;57.60;101105.97;4982029;28;8848;-67
2023/07/21 09:10:47;;;;;;;;;0.00;0.00;;;;;18.73;57.57;101106.94;4951124;28;8824;-68
2023/07/21 09:13:15;;;;;;;;;2.25;2.25;;;;;18.77;57.33;101105.38;4949131;28;8836;-67
2023/07/21 09:15:53;;;;;;;;;1.50;1.50;;;;;18.77;57.44;101107.28;4957564;28;9567;-67
2023/07/21 09:18:27;;;;;;;;;2.00;2.00;;;;;18.82;57.67;101106.53;4951247;28;8828;-69
2023/07/21 09:20:54;;;;;;;;;0.50;0.50;;;;;18.90;57.45;101106.16;4951629;28;8906;-67
2023/07/21 09:23:22;;;;;;;;;1.75;1.75;;;;;18.91;57.21;101105.91;4945222;28;8864;-68
2023/07/21 09:25:53;;;;;;;;;1.00;1.00;;;;;18.92;57.44;101107.59;4943204;28;8866;-67
2023/07/21 09:28:39;;;;;;;;;3.25;3.25;;;;;18.83;57.17;101108.19;4963933;28;8879;-67
2023/07/21 09:31:06;;;;;;;;;8.00;7.33;;;;;18.83;57.36;101105.47;4947961;28;8836;-67
2023/07/21 09:33:39;;;;;;;;;3.00;3.00;;;;;18.83;57.39;101097.28;4951236;28;8939;-67
2023/07/21 09:36:16;;;;;;;;;2.00;2.00;;;;;18.88;57.23;101100.97;4951489;28;8855;-67
2023/07/21 09:38:44;;;;;;;;;3.75;1.75;;;;;18.92;57.36;101091.22;4962745;28;8832;-68
2023/07/21 09:41:13;;;;;;;;;1.75;1.75;;;;;18.95;56.95;101092.59;4950831;28;8874;-68
2023/07/21 09:43:41;;;;;;;;;1.00;1.00;;;;;18.99;56.91;101096.50;4963865;28;8843;-67
2023/07/21 09:46:08;;;;;;;;;1.00;1.00;;;;;19.00;56.82;101093.56;4951861;28;8856;-67
2023/07/21 09:48:54;;;;;;;;;2.25;2.25;;;;;19.02;56.63;101096.03;4956410;28;8832;-68
2023/07/21 09:51:21;;;;;;;;;1.75;1.00;;;;;19.06;56.32;101091.72;4951555;28;8855;-68
2023/07/21 09:53:52;;;;;;;;;2.00;0.25;;;;;19.08;56.47;101097.78;4951215;28;8844;-68
2023/07/21 09:56:21;;;;;;;;;1.00;1.00;;;;;19.17;56.33;101093.59;4951446;28;8840;-67
2023/07/21 09:59:00;;;;;;;;;1.00;1.00;;;;;19.29;56.08;101084.50;4951546;28;8979;-68
2023/07/21 10:01:29;;;;;;;;;1.00;1.00;;;;;19.31;56.42;101087.81;4965938;28;8824;-68
2023/07/21 10:03:57;;;;;;;;;0.25;0.25;;;;;19.35;56.35;101087.06;4965634;28;8836;-67
2023/07/21 10:06:25;;;;;;;;;1.00;1.00;;;;;19.39;56.01;101092.88;4951240;28;8832;-67
2023/07/21 10:08:52;;;;;;;;;2.00;2.00;;;;;19.41;55.49;101086.09;4950741;28;8832;-67
2023/07/21 10:11:19;;;;;;;;;2.25;2.00;;;;;19.38;54.90;101081.13;4950844;28;8855;-68
2023/07/21 10:13:47;;;;;;;;;1.00;1.00;;;;;19.37;55.39;101082.19;4951072;28;8899;-68
2023/07/21 10:16:14;;;;;;;;;1.00;1.00;;;;;19.36;55.10;101075.06;4950491;28;9593;-68
2023/07/21 10:19:00;;;;;;;;;0.50;0.50;;;;;19.30;54.55;101078.78;4950247;28;8966;-67
2023/07/21 10:21:50;;;;;;;;;2.00;2.00;;;;;19.25;54.63;101076.81;4943952;28;8938;-68
2023/07/21 10:24:24;;;;;;;;;1.00;1.00;;;;;19.17;54.17;101076.38;4950645;28;8909;-68
2023/07/21 10:26:56;;;;;;;;;0.00;0.00;;;;;19.15;54.23;101086.72;4950721;28;8937;-67
2023/07/21 10:29:22;;;;;;;;;0.00;0.00;;;;;19.14;54.15;101088.59;4942182;28;8907;-67
2023/07/21 10:31:57;;;;;;;;;1.00;1.00;;;;;19.11;54.24;101089.09;4964898;28;8922;-67
2023/07/21 10:34:43;;;;;;;;;0.75;0.75;;;;;19.11;54.51;101094.56;4943381;28;8844;-67
2023/07/21 10:37:09;;;;;;;;;0.00;0.00;;;;;19.11;54.57;101089.09;4950936;28;8876;-67
2023/07/21 10:39:42;;;;;;;;;0.25;0.25;;;;;19.12;54.70;101095.38;4950802;28;8831;-67
2023/07/21 10:42:10;;;;;;;;;0.75;0.75;;;;;19.06;54.20;101094.47;4965126;28;8836;-68
2023/07/21 10:44:41;;;;;;;;;1.00;1.00;;;;;19.06;53.58;101110.00;4950618;28;8896;-67
2023/07/21 10:47:13;;;;;;;;;0.25;0.25;;;;;19.04;53.69;101102.09;4950869;28;8938;-69
2023/07/21 10:49:41;;;;;;;;;0.00;0.00;;;;;19.07;53.93;101104.28;4965036;28;8859;-68
2023/07/21 10:52:09;;;;;;;;;0.00;0.00;;;;;19.12;54.15;101096.22;4950046;28;9662;-68
2023/07/21 10:54:36;;;;;;;;;1.00;1.00;;;;;19.14;53.94;101101.44;4950510;28;8915;-68
2023/07/21 10:57:03;;;;;;;;;0.00;0.00;;;;;19.14;53.82;101115.06;4950345;28;8848;-67
2023/07/21 10:59:34;;;;;;;;;0.00;0.00;;;;;19.09;53.10;101102.16;4950493;28;8859;-67
2023/07/21 11:02:06;;;;;;;;;0.00;0.00;;;;;19.09;52.58;101112.25;4950412;28;8838;-68
2023/07/21 11:04:35;;;;;;;;;0.75;0.75;;;;;19.07;52.49;101112.47;4949167;28;8841;-68
2023/07/21 11:07:03;;;;;;;;;1.00;1.00;;;;;19.02;52.74;101123.31;4950904;28;8836;-67
2023/07/21 11:09:33;;;;;;;;;1.50;1.50;;;;;19.00;54.72;101123.56;4950175;28;8848;-67
2023/07/21 11:12:01;;;;;;;;;0.50;0.50;;;;;18.98;56.60;101122.13;4950123;28;8832;-66
2023/07/21 11:14:28;;;;;;;;;1.50;1.50;;;;;18.94;58.19;101119.06;4950190;28;8924;-67
2023/07/21 11:17:01;;;;;;;;;1.25;1.25;;;;;18.95;58.98;101123.44;4950406;28;8852;-66
2023/07/21 11:19:31;;;;;;;;;1.50;1.50;;;;;18.95;59.70;101119.88;4950339;28;8867;-67
2023/07/21 11:21:57;;;;;;;;;1.00;1.00;;;;;18.95;60.18;101130.81;4949613;28;8812;-67
2023/07/21 11:24:30;;;;;;;;;2.00;1.00;;;;;18.92;60.70;101129.41;4964892;28;8844;-67
2023/07/21 11:27:15;;;;;;;;;1.50;1.50;;;;;18.96;60.59;101135.22;4990641;28;8824;-67
2023/07/21 11:29:43;;;;;;;;;3.00;1.75;;;;;18.90;60.75;101131.53;4949797;28;8820;-66
2023/07/21 11:32:22;;;;;;;;;1.00;1.00;;;;;18.88;60.42;101125.50;4949881;28;8890;-66
2023/07/21 11:34:56;;;;;;;;;1.00;1.00;;;;;18.87;60.54;101123.81;4950684;28;9279;-67
2023/07/21 11:37:22;;;;;;;;;1.75;1.75;;;;;18.89;60.44;101123.59;4948884;28;8824;-67
2023/07/21 11:39:56;;;;;;;;;1.75;1.75;;;;;18.88;60.03;101120.06;4949897;28;8844;-67
2023/07/21 11:42:23;;;;;;;;;1.00;1.00;;;;;18.92;59.82;101120.38;4950174;28;8812;-67
2023/07/21 11:44:50;;;;;;;;;1.75;0.75;;;;;19.06;59.49;101112.75;4950096;28;8866;-67
2023/07/21 11:47:17;;;;;;;;;2.00;2.00;;;;;19.16;59.08;101111.03;4964730;28;8840;-66